createdAt,value
2023-04-26T00:00:34.162Z,64.53
2023-04-26T00:03:01.537Z,63.03
2023-04-26T00:05:29.802Z,62.33
2023-04-26T00:07:57.299Z,62.96
2023-04-26T00:10:24.261Z,63.43
2023-04-26T00:12:51.275Z,64.41
2023-04-26T00:15:18.317Z,64.94
2023-04-26T00:17:45.531Z,64.47
2023-04-26T00:20:13.697Z,63.04
2023-04-26T00:22:41.194Z,62.81
2023-04-26T00:25:08.765Z,62.89
2023-04-26T00:27:36.720Z,63.84
2023-04-26T00:30:04.479Z,64.78
2023-04-26T00:32:32.438Z,65.00
2023-04-26T00:34:59.543Z,64.77
2023-04-26T00:37:26.977Z,63.28
2023-04-26T00:39:53.996Z,63.41
2023-04-26T00:42:21.039Z,63.48
2023-04-26T00:44:49.683Z,64.08
2023-04-26T00:47:16.737Z,64.90
2023-04-26T00:49:44.051Z,65.68
2023-04-26T00:52:11.392Z,64.86
2023-04-26T00:54:38.634Z,63.55
2023-04-26T00:57:07.246Z,63.68
2023-04-26T00:59:35.505Z,64.48
2023-04-26T01:02:05.355Z,64.86
2023-04-26T01:04:33.335Z,65.43
2023-04-26T01:07:01.650Z,66.63
2023-04-26T01:09:32.419Z,66.04
2023-04-26T01:12:00.973Z,64.88
2023-04-26T01:14:28.219Z,64.32
2023-04-26T01:16:56.659Z,64.51
2023-04-26T01:19:23.763Z,65.26
2023-04-26T01:21:50.896Z,65.94
2023-04-26T01:24:17.975Z,66.49
2023-04-26T01:26:47.900Z,65.71
2023-04-26T01:29:16.515Z,64.39
2023-04-26T01:31:43.792Z,63.83
2023-04-26T01:34:10.994Z,64.16
2023-04-26T01:36:38.250Z,64.79
2023-04-26T01:39:05.236Z,65.19
2023-04-26T01:41:33.932Z,65.84
2023-04-26T01:44:01.587Z,65.73
2023-04-26T01:46:28.859Z,64.72
2023-04-26T01:48:57.545Z,65.07
2023-04-26T01:52:04.976Z,66.03
2023-04-26T01:54:32.290Z,65.92
2023-04-26T01:57:00.492Z,66.74
2023-04-26T01:59:28.102Z,66.23
2023-04-26T02:01:55.469Z,65.05
2023-04-26T02:04:24.248Z,64.96
2023-04-26T02:06:51.397Z,65.68
2023-04-26T02:09:18.546Z,66.17
2023-04-26T02:11:45.599Z,67.19
2023-04-26T02:14:12.818Z,67.21
2023-04-26T02:16:40.535Z,65.75
2023-04-26T02:19:10.943Z,64.73
2023-04-26T02:21:52.261Z,65.51
2023-04-26T02:24:19.564Z,66.12
2023-04-26T02:26:46.740Z,66.55
2023-04-26T02:29:13.904Z,67.53
2023-04-26T02:31:41.139Z,66.73
2023-04-26T02:34:08.785Z,65.19
2023-04-26T02:36:36.033Z,64.76
2023-04-26T02:39:03.597Z,65.16
2023-04-26T02:41:33.743Z,66.05
2023-04-26T02:44:01.574Z,66.87
2023-04-26T02:46:28.827Z,67.42
2023-04-26T02:48:56.229Z,67.03
2023-04-26T02:51:23.647Z,65.62
2023-04-26T02:53:50.688Z,65.02
2023-04-26T02:56:19.575Z,65.31
2023-04-26T02:58:47.265Z,66.03
2023-04-26T03:01:15.226Z,66.69
2023-04-26T03:03:42.704Z,67.44
2023-04-26T03:06:09.886Z,66.47
2023-04-26T03:08:36.968Z,65.37
2023-04-26T03:11:04.193Z,65.27
2023-04-26T03:13:31.763Z,65.55
2023-04-26T03:15:59.021Z,66.25
2023-04-26T03:18:26.373Z,66.73
2023-04-26T03:20:53.386Z,66.83
2023-04-26T03:23:24.387Z,65.38
2023-04-26T03:25:51.916Z,65.09
2023-04-26T03:28:19.842Z,64.83
2023-04-26T03:30:47.279Z,65.98
2023-04-26T03:33:15.106Z,66.49
2023-04-26T03:35:42.267Z,67.40
2023-04-26T03:38:09.515Z,66.98
2023-04-26T03:40:36.521Z,65.33
2023-04-26T03:43:03.916Z,64.53
2023-04-26T03:45:31.378Z,64.79
2023-04-26T03:47:58.723Z,65.04
2023-04-26T03:50:25.986Z,65.66
2023-04-26T03:52:53.274Z,66.34
2023-04-26T03:55:20.551Z,66.02
2023-04-26T03:57:48.347Z,64.27
2023-04-26T04:00:15.724Z,63.74
2023-04-26T04:02:43.163Z,64.14
2023-04-26T04:05:11.963Z,64.62
2023-04-26T04:07:40.066Z,65.14
2023-04-26T04:10:07.632Z,66.09
2023-04-26T04:12:37.371Z,65.64
2023-04-26T04:15:04.702Z,64.35
2023-04-26T04:17:32.422Z,63.66
2023-04-26T04:19:59.584Z,64.51
2023-04-26T04:22:26.959Z,64.52
2023-04-26T04:24:54.671Z,65.32
2023-04-26T04:27:22.955Z,65.98
2023-04-26T04:29:50.621Z,65.39
2023-04-26T04:32:17.825Z,63.96
2023-04-26T04:34:46.836Z,63.53
2023-04-26T04:37:15.672Z,63.63
2023-04-26T04:39:42.906Z,64.60
2023-04-26T04:42:10.447Z,65.02
2023-04-26T04:44:38.228Z,65.69
2023-04-26T04:47:05.839Z,65.19
2023-04-26T04:49:33.581Z,63.67
2023-04-26T04:52:01.081Z,63.20
2023-04-26T04:54:28.056Z,63.66
2023-04-26T04:56:55.703Z,64.37
2023-04-26T04:59:23.129Z,65.12
2023-04-26T05:01:51.076Z,65.88
2023-04-26T05:04:19.189Z,65.56
2023-04-26T05:06:46.398Z,63.67
2023-04-26T05:09:13.598Z,62.77
2023-04-26T05:11:41.314Z,63.32
2023-04-26T05:14:09.929Z,64.08
2023-04-26T05:16:37.274Z,65.30
2023-04-26T05:19:04.767Z,66.19
2023-04-26T05:21:33.887Z,65.13
2023-04-26T05:24:01.028Z,63.47
2023-04-26T05:26:27.993Z,63.18
2023-04-26T05:29:10.349Z,63.63
2023-04-26T05:31:56.886Z,64.18
2023-04-26T05:34:42.462Z,65.54
2023-04-26T05:37:12.880Z,65.81
2023-04-26T05:39:39.764Z,64.87
2023-04-26T05:42:06.986Z,63.32
2023-04-26T05:44:33.899Z,63.14
2023-04-26T05:47:02.381Z,63.68
2023-04-26T05:49:29.410Z,64.48
2023-04-26T05:51:59.285Z,65.11
2023-04-26T05:54:26.304Z,65.85
2023-04-26T05:56:53.471Z,65.24
2023-04-26T05:59:20.418Z,63.86
2023-04-26T06:01:47.951Z,63.51
2023-04-26T06:04:15.616Z,64.06
2023-04-26T06:06:51.125Z,64.83
2023-04-26T06:09:20.098Z,65.01
2023-04-26T06:11:47.812Z,65.46
2023-04-26T06:14:29.437Z,65.26
2023-04-26T06:16:59.428Z,63.56
2023-04-26T06:19:27.705Z,62.99
2023-04-26T06:21:55.578Z,63.05
2023-04-26T06:24:23.557Z,63.77
2023-04-26T06:26:50.498Z,64.28
2023-04-26T06:29:17.628Z,65.18
2023-04-26T06:31:44.699Z,64.21
2023-04-26T06:34:12.458Z,62.94
2023-04-26T06:36:39.704Z,61.71
2023-04-26T06:39:06.946Z,62.09
2023-04-26T06:41:34.526Z,62.98
2023-04-26T06:44:01.501Z,63.98
2023-04-26T06:46:31.641Z,64.42
2023-04-26T06:48:58.619Z,63.89
2023-04-26T06:51:25.557Z,62.81
2023-04-26T06:53:53.146Z,61.85
2023-04-26T06:56:20.430Z,61.70
2023-04-26T06:59:03.948Z,62.51
2023-04-26T07:01:34.012Z,63.24
2023-04-26T07:04:03.704Z,63.95
2023-04-26T07:06:32.108Z,63.73
2023-04-26T07:09:01.253Z,62.18
2023-04-26T07:11:29.014Z,61.44
2023-04-26T07:13:56.058Z,61.48
2023-04-26T07:16:23.250Z,61.93
2023-04-26T07:18:50.556Z,62.47
2023-04-26T07:21:17.433Z,62.84
2023-04-26T07:23:44.983Z,63.08
2023-04-26T07:26:12.042Z,61.74
2023-04-26T07:28:39.246Z,60.59
2023-04-26T07:31:08.736Z,60.57
2023-04-26T07:33:37.239Z,61.11
2023-04-26T07:36:04.517Z,60.86
2023-04-26T07:38:32.342Z,61.67
2023-04-26T07:41:01.205Z,62.56
2023-04-26T07:43:28.166Z,63.40
2023-04-26T07:45:55.684Z,62.99
2023-04-26T07:48:22.857Z,60.96
2023-04-26T07:50:50.053Z,60.91
2023-04-26T07:53:17.871Z,61.39
2023-04-26T07:55:44.806Z,61.64
2023-04-26T07:58:14.791Z,62.02
2023-04-26T08:00:42.070Z,63.12
2023-04-26T08:03:09.413Z,63.69
2023-04-26T08:05:37.378Z,63.04
2023-04-26T08:08:05.165Z,60.97
2023-04-26T08:10:32.265Z,60.30
2023-04-26T08:13:03.378Z,60.57
2023-04-26T08:15:32.085Z,61.67
2023-04-26T08:17:59.097Z,61.73
2023-04-26T08:20:26.226Z,62.59
2023-04-26T08:22:59.663Z,63.43
2023-04-26T08:25:26.761Z,61.96
2023-04-26T08:27:54.122Z,61.03
2023-04-26T08:30:21.475Z,60.67
2023-04-26T08:32:48.904Z,61.05
2023-04-26T08:35:15.902Z,61.83
2023-04-26T08:37:42.815Z,62.62
2023-04-26T08:40:12.991Z,63.40
2023-04-26T08:42:44.411Z,63.65
2023-04-26T08:45:13.902Z,62.75
2023-04-26T08:47:46.074Z,61.23
2023-04-26T08:50:15.063Z,60.56
2023-04-26T08:52:42.798Z,60.80
2023-04-26T08:55:20.197Z,61.10
2023-04-26T08:57:48.212Z,61.55
2023-04-26T09:00:16.284Z,62.14
2023-04-26T09:02:49.746Z,62.62
2023-04-26T09:05:17.179Z,62.09
2023-04-26T09:07:45.819Z,61.08
2023-04-26T09:10:13.609Z,60.68
2023-04-26T09:12:41.352Z,60.97
2023-04-26T09:15:09.109Z,61.85
2023-04-26T09:17:41.940Z,62.22
2023-04-26T09:20:26.420Z,62.69
2023-04-26T09:22:54.945Z,61.56
2023-04-26T09:25:29.698Z,60.45
2023-04-26T09:27:56.623Z,60.07
2023-04-26T09:30:23.953Z,60.29
2023-04-26T09:32:55.989Z,60.92
2023-04-26T09:35:35.966Z,61.30
2023-04-26T09:38:12.769Z,61.94
2023-04-26T09:40:45.083Z,62.41
2023-04-26T09:43:16.346Z,61.95
2023-04-26T09:45:51.120Z,60.06
2023-04-26T09:48:30.909Z,59.83
2023-04-26T09:50:59.089Z,60.44
2023-04-26T09:53:42.759Z,60.88
2023-04-26T09:56:14.272Z,61.12
2023-04-26T09:58:44.223Z,61.41
2023-04-26T10:01:14.118Z,62.02
2023-04-26T10:03:42.876Z,63.14
2023-04-26T10:06:10.465Z,62.71
2023-04-26T10:08:37.741Z,60.26
2023-04-26T10:11:05.283Z,60.44
2023-04-26T10:13:32.967Z,60.50
2023-04-26T10:16:03.633Z,61.04
2023-04-26T10:18:31.565Z,61.92
2023-04-26T10:21:00.435Z,62.26
2023-04-26T10:23:27.427Z,62.94
2023-04-26T10:25:54.661Z,62.42
2023-04-26T10:28:40.096Z,60.85
2023-04-26T10:31:07.785Z,60.58
2023-04-26T10:33:34.900Z,60.35
2023-04-26T10:36:03.154Z,59.90
2023-04-26T10:38:30.957Z,60.48
2023-04-26T10:41:34.327Z,61.51
2023-04-26T10:44:23.092Z,62.67
2023-04-26T10:46:51.319Z,63.02
2023-04-26T10:49:19.957Z,62.21
2023-04-26T10:52:10.526Z,60.21
2023-04-26T10:54:51.053Z,59.94
2023-04-26T10:57:18.337Z,61.00
2023-04-26T11:00:12.549Z,61.54
2023-04-26T11:02:53.356Z,62.10
2023-04-26T11:05:42.831Z,62.19
2023-04-26T11:08:19.579Z,62.77
2023-04-26T11:10:57.711Z,61.86
2023-04-26T11:13:24.978Z,60.15
2023-04-26T11:16:05.835Z,60.19
2023-04-26T11:18:33.480Z,60.39
2023-04-26T11:21:00.778Z,60.76
2023-04-26T11:23:29.152Z,61.14
2023-04-26T11:26:00.338Z,61.72
2023-04-26T11:28:27.758Z,61.78
2023-04-26T11:30:55.948Z,62.86
2023-04-26T11:33:23.248Z,62.87
2023-04-26T11:35:54.751Z,61.11
2023-04-26T11:38:22.868Z,60.34
2023-04-26T11:41:00.547Z,60.58
2023-04-26T11:43:45.590Z,61.03
2023-04-26T11:46:12.761Z,61.36
2023-04-26T11:48:39.933Z,62.24
2023-04-26T11:51:07.798Z,63.07
2023-04-26T11:53:39.112Z,62.50
2023-04-26T11:56:18.875Z,61.43
2023-04-26T11:58:49.877Z,60.82
2023-04-26T12:01:21.288Z,60.89
2023-04-26T12:03:53.925Z,61.49
2023-04-26T12:06:25.899Z,62.76
2023-04-26T12:08:53.177Z,63.26
2023-04-26T12:11:20.850Z,64.22
2023-04-26T12:13:49.160Z,63.60
2023-04-26T12:16:25.611Z,61.50
2023-04-26T12:18:54.833Z,61.07
2023-04-26T12:21:22.087Z,61.13
2023-04-26T12:23:49.195Z,61.10
2023-04-26T12:26:16.166Z,61.13
2023-04-26T12:28:43.290Z,61.78
2023-04-26T12:31:10.410Z,62.56
2023-04-26T12:33:37.970Z,62.94
2023-04-26T12:36:12.069Z,62.28
2023-04-26T12:38:39.575Z,60.97
2023-04-26T12:41:06.946Z,60.39
2023-04-26T12:43:34.224Z,60.67
2023-04-26T12:46:01.614Z,60.98
2023-04-26T12:48:29.044Z,62.13
2023-04-26T12:50:56.152Z,62.70
2023-04-26T12:53:23.306Z,62.78
2023-04-26T12:55:50.328Z,61.91
2023-04-26T12:58:17.291Z,59.53
2023-04-26T13:00:44.849Z,58.51
2023-04-26T13:03:14.634Z,58.62
2023-04-26T13:05:42.012Z,58.42
2023-04-26T13:08:09.100Z,59.28
2023-04-26T13:10:37.049Z,59.59
2023-04-26T13:13:04.080Z,60.35
2023-04-26T13:15:31.079Z,60.46
2023-04-26T13:17:58.141Z,61.05
2023-04-26T13:20:26.694Z,60.69
2023-04-26T13:22:54.935Z,58.45
2023-04-26T13:25:22.434Z,57.44
2023-04-26T13:27:49.420Z,56.95
2023-04-26T13:30:16.491Z,57.37
2023-04-26T13:32:44.002Z,57.04
2023-04-26T13:35:12.258Z,57.63
2023-04-26T13:37:39.244Z,58.78
2023-04-26T13:40:07.080Z,59.11
2023-04-26T13:42:34.255Z,59.37
2023-04-26T13:45:06.157Z,59.37
2023-04-26T13:47:34.011Z,59.94
2023-04-26T13:50:01.293Z,59.29
2023-04-26T13:52:28.288Z,57.90
2023-04-26T13:54:55.503Z,56.83
2023-04-26T13:57:22.390Z,56.79
2023-04-26T13:59:49.516Z,57.71
2023-04-26T14:02:16.612Z,57.35
2023-04-26T14:04:43.857Z,57.92
2023-04-26T14:07:11.143Z,58.02
2023-04-26T14:09:38.087Z,58.56
2023-04-26T14:12:08.643Z,58.62
2023-04-26T14:14:37.062Z,59.17
2023-04-26T14:17:04.018Z,59.10
2023-04-26T14:19:31.458Z,59.29
2023-04-26T14:21:58.440Z,58.68
2023-04-26T14:24:25.547Z,55.96
2023-04-26T14:26:52.412Z,55.86
2023-04-26T14:29:19.479Z,55.90
2023-04-26T14:31:46.577Z,55.71
2023-04-26T14:34:13.647Z,55.90
2023-04-26T14:36:40.692Z,56.57
2023-04-26T14:39:07.847Z,56.94
2023-04-26T14:41:35.570Z,57.28
2023-04-26T14:44:02.494Z,57.64
2023-04-26T14:46:30.257Z,58.01
2023-04-26T14:48:57.196Z,57.47
2023-04-26T14:51:24.483Z,57.50
2023-04-26T14:53:51.601Z,57.51
2023-04-26T14:56:18.554Z,57.00
2023-04-26T14:58:45.497Z,57.77
2023-04-26T15:01:12.488Z,57.91
2023-04-26T15:03:39.649Z,58.45
2023-04-26T15:06:09.575Z,57.06
2023-04-26T15:08:37.291Z,55.06
2023-04-26T15:11:04.520Z,53.81
2023-04-26T15:13:31.583Z,54.79
2023-04-26T15:16:06.049Z,54.69
2023-04-26T15:18:34.440Z,54.90
2023-04-26T15:21:01.824Z,55.79
2023-04-26T15:23:28.951Z,56.22
2023-04-26T15:25:56.334Z,56.62
2023-04-26T15:28:23.684Z,56.08
2023-04-26T15:30:50.705Z,56.32
2023-04-26T15:33:18.128Z,56.43
2023-04-26T15:35:45.469Z,56.88
2023-04-26T15:38:12.628Z,55.52
2023-04-26T15:40:39.520Z,55.46
2023-04-26T15:43:06.514Z,56.18
2023-04-26T15:45:35.755Z,55.97
2023-04-26T15:48:02.757Z,55.82
2023-04-26T15:50:30.170Z,55.29
2023-04-26T15:52:58.327Z,55.30
2023-04-26T15:55:25.970Z,55.35
2023-04-26T15:57:52.964Z,55.54
2023-04-26T16:00:20.843Z,55.43
2023-04-26T16:02:47.971Z,55.69
2023-04-26T16:05:15.513Z,55.99
2023-04-26T16:07:44.057Z,56.19
2023-04-26T16:10:11.183Z,56.24
2023-04-26T16:12:39.998Z,56.29
2023-04-26T16:15:08.348Z,56.61
2023-04-26T16:17:35.777Z,56.46
2023-04-26T16:20:04.962Z,56.31
2023-04-26T16:22:33.109Z,56.17
2023-04-26T16:25:00.039Z,56.47
2023-04-26T16:27:27.408Z,55.93
2023-04-26T16:29:54.523Z,56.40
2023-04-26T16:32:21.847Z,56.30
2023-04-26T16:34:49.117Z,56.43
2023-04-26T16:37:16.106Z,56.46
2023-04-26T16:39:43.084Z,56.26
2023-04-26T16:42:10.044Z,56.25
2023-04-26T16:44:37.238Z,56.35
2023-04-26T16:47:04.404Z,56.37
2023-04-26T16:49:32.123Z,56.81
2023-04-26T16:51:59.357Z,56.69
2023-04-26T16:54:26.407Z,56.69
2023-04-26T16:56:53.812Z,56.50
2023-04-26T16:59:20.778Z,54.96
2023-04-26T17:01:47.962Z,54.81
2023-04-26T17:04:15.606Z,54.50
2023-04-26T17:06:44.408Z,54.42
2023-04-26T17:09:12.864Z,54.57
2023-04-26T17:11:43.533Z,54.87
2023-04-26T17:14:10.970Z,55.32
2023-04-26T17:16:38.646Z,55.43
2023-04-26T17:19:06.900Z,56.18
2023-04-26T17:21:34.000Z,56.61
2023-04-26T17:24:01.017Z,56.63
2023-04-26T17:26:28.003Z,56.66
2023-04-26T17:28:56.273Z,56.71
2023-04-26T17:31:23.269Z,56.83
2023-04-26T17:33:50.573Z,57.25
2023-04-26T17:36:17.952Z,57.24
2023-04-26T17:38:45.544Z,57.33
2023-04-26T17:41:18.924Z,56.82
2023-04-26T17:43:45.953Z,56.71
2023-04-26T17:46:13.030Z,57.35
2023-04-26T17:48:40.333Z,57.13
2023-04-26T17:51:07.475Z,57.37
2023-04-26T17:53:34.894Z,56.84
2023-04-26T17:56:01.843Z,55.27
2023-04-26T17:58:28.852Z,54.52
2023-04-26T18:00:56.041Z,54.54
2023-04-26T18:03:23.502Z,54.20
2023-04-26T18:05:50.752Z,54.73
2023-04-26T18:08:17.711Z,55.22
2023-04-26T18:10:45.761Z,55.27
2023-04-26T18:13:14.269Z,55.83
2023-04-26T18:15:41.374Z,56.02
2023-04-26T18:18:08.864Z,55.94
2023-04-26T18:20:36.921Z,56.17
2023-04-26T18:23:04.110Z,56.35
2023-04-26T18:25:31.479Z,56.32
2023-04-26T18:27:58.673Z,56.53
2023-04-26T18:30:25.669Z,56.58
2023-04-26T18:32:53.217Z,56.71
2023-04-26T18:35:20.471Z,56.67
2023-04-26T18:37:47.479Z,57.09
2023-04-26T18:40:14.459Z,57.22
2023-04-26T18:42:42.157Z,56.95
2023-04-26T18:45:09.592Z,55.24
2023-04-26T18:47:36.717Z,54.63
2023-04-26T18:50:04.417Z,55.14
2023-04-26T18:52:31.651Z,55.57
2023-04-26T18:54:58.552Z,56.12
2023-04-26T18:57:28.380Z,57.07
2023-04-26T18:59:57.296Z,57.29
2023-04-26T19:02:24.345Z,58.12
2023-04-26T19:04:51.365Z,58.54
2023-04-26T19:07:18.482Z,59.03
2023-04-26T19:09:53.550Z,59.44
2023-04-26T19:12:21.997Z,57.65
2023-04-26T19:14:49.069Z,57.36
2023-04-26T19:17:16.000Z,57.13
2023-04-26T19:19:42.949Z,57.31
2023-04-26T19:22:09.865Z,57.87
2023-04-26T19:24:37.182Z,58.02
2023-04-26T19:27:04.685Z,58.66
2023-04-26T19:29:32.197Z,58.75
2023-04-26T19:32:00.132Z,59.32
2023-04-26T19:34:28.016Z,59.77
2023-04-26T19:36:55.056Z,59.47
2023-04-26T19:39:23.540Z,57.26
2023-04-26T19:41:50.937Z,56.62
2023-04-26T19:44:17.941Z,56.67
2023-04-26T19:46:44.917Z,56.70
2023-04-26T19:49:12.134Z,57.38
2023-04-26T19:51:39.013Z,57.16
2023-04-26T19:54:06.269Z,57.92
2023-04-26T19:56:33.666Z,58.02
2023-04-26T19:59:00.688Z,58.59
2023-04-26T20:01:27.992Z,58.91
2023-04-26T20:03:55.197Z,58.97
2023-04-26T20:06:22.427Z,59.19
2023-04-26T20:08:50.968Z,57.23
2023-04-26T20:11:18.574Z,56.46
2023-04-26T20:13:45.748Z,56.32
2023-04-26T20:16:12.884Z,56.82
2023-04-26T20:18:39.956Z,57.14
2023-04-26T20:21:07.214Z,57.44
2023-04-26T20:23:34.199Z,57.66
2023-04-26T20:26:01.165Z,57.82
2023-04-26T20:28:28.117Z,57.92
2023-04-26T20:30:55.077Z,57.83
2023-04-26T20:33:22.472Z,57.94
2023-04-26T20:35:49.618Z,58.03
2023-04-26T20:38:17.400Z,58.39
2023-04-26T20:40:44.383Z,55.90
2023-04-26T20:43:12.158Z,54.65
2023-04-26T20:45:40.348Z,53.57
2023-04-26T20:48:07.598Z,53.36
2023-04-26T20:50:36.411Z,53.22
2023-04-26T20:53:06.766Z,53.47
2023-04-26T20:55:33.797Z,54.36
2023-04-26T20:58:01.082Z,53.90
2023-04-26T21:00:28.024Z,54.31
2023-04-26T21:03:00.477Z,54.74
2023-04-26T21:05:27.618Z,54.71
2023-04-26T21:07:54.658Z,54.45
2023-04-26T21:10:22.064Z,54.86
2023-04-26T21:12:49.230Z,54.60
2023-04-26T21:15:16.209Z,54.68
2023-04-26T21:17:43.661Z,54.75
2023-04-26T21:20:11.372Z,54.40
2023-04-26T21:22:38.747Z,54.68
2023-04-26T21:25:06.296Z,54.62
2023-04-26T21:27:34.169Z,54.65
2023-04-26T21:30:01.179Z,54.66
2023-04-26T21:32:28.146Z,54.93
2023-04-26T21:34:55.259Z,54.14
2023-04-26T21:37:22.202Z,54.75
2023-04-26T21:39:49.169Z,55.02
2023-04-26T21:42:19.165Z,55.21
2023-04-26T21:44:46.174Z,55.63
2023-04-26T21:47:13.150Z,55.60
2023-04-26T21:49:40.231Z,55.98
2023-04-26T21:52:07.326Z,56.30
2023-04-26T21:54:35.767Z,56.89
2023-04-26T21:57:06.696Z,56.94
2023-04-26T21:59:33.833Z,55.39
2023-04-26T22:02:01.353Z,55.15
2023-04-26T22:04:29.094Z,54.95
2023-04-26T22:06:56.314Z,55.51
2023-04-26T22:09:23.393Z,55.57
2023-04-26T22:11:50.588Z,56.01
2023-04-26T22:14:17.588Z,56.48
2023-04-26T22:16:44.779Z,56.75
2023-04-26T22:19:12.005Z,57.74
2023-04-26T22:21:39.527Z,58.22
2023-04-26T22:24:06.956Z,58.91
2023-04-26T22:26:34.786Z,58.75
2023-04-26T22:29:01.874Z,57.35
2023-04-26T22:31:29.220Z,56.59
2023-04-26T22:33:56.335Z,56.75
2023-04-26T22:36:23.895Z,57.41
2023-04-26T22:38:50.807Z,57.97
2023-04-26T22:41:17.722Z,58.53
2023-04-26T22:43:44.769Z,58.82
2023-04-26T22:46:12.201Z,58.76
2023-04-26T22:48:39.327Z,59.25
2023-04-26T22:51:06.669Z,59.51
2023-04-26T22:53:33.735Z,59.37
2023-04-26T22:56:01.090Z,57.66
2023-04-26T22:58:28.096Z,56.76
2023-04-26T23:00:55.113Z,56.85
2023-04-26T23:03:22.349Z,56.99
2023-04-26T23:05:49.493Z,56.43
2023-04-26T23:08:16.767Z,56.93
2023-04-26T23:10:45.009Z,57.58
2023-04-26T23:13:12.060Z,57.90
2023-04-26T23:15:39.245Z,57.98
2023-04-26T23:18:06.292Z,58.21
2023-04-26T23:20:33.305Z,58.07
2023-04-26T23:23:00.239Z,58.28
2023-04-26T23:25:27.178Z,58.91
2023-04-26T23:27:54.082Z,57.16
2023-04-26T23:30:21.224Z,56.51
2023-04-26T23:32:48.308Z,56.69
2023-04-26T23:35:15.274Z,56.58
2023-04-26T23:37:42.331Z,56.74
2023-04-26T23:40:10.336Z,56.92
2023-04-26T23:42:37.318Z,56.80
2023-04-26T23:45:04.690Z,57.31
2023-04-26T23:47:32.137Z,57.97
2023-04-26T23:49:59.347Z,57.93
2023-04-26T23:52:26.431Z,58.81
2023-04-26T23:54:53.418Z,59.07
2023-04-26T23:57:20.522Z,58.71
2023-04-26T23:59:47.923Z,57.19
